Justin Paul Eckstein — WDH6444 — position and weather

sailwx.info

Track history (hours):
 
Tides and Currents Weather Stations Pressure Air Temp Water Temp Dewpoint Dewpoint Depression Visibility Wind Speed Wind Dir Waves Ship Positions

Justin Paul Eckstein

Owner: Marquette Transportation Co. LLC, Paducah, KY. More information available from US FCC via Universal Licensing System and Coast Guard Vessel Documentation Center.

Last reported at 2017-Oct-19 13:52 UTC. Time now 2017-Oct-19 22:13 UTC.
Position N 32°40' W 091°07'.

Length 61 m; draft 3.2 m.

Type: Tow > 200 m length. MMSI: 367608030.

Date/timePositionNaut miles runAvg speedWind from/ knotsBaromVisibWave heightAir tempDewpointWater temp
2017-Oct-19 13:52N 32°40' W 091°07'1 3.6
2017-Oct-19 13:30N 32°40' W 091°08'2 3.6
2017-Oct-19 12:57N 32°38' W 091°09'0 1.0
2017-Oct-19 12:30N 32°37' W 091°09'0 0.1
2017-Oct-19 12:00N 32°37' W 091°09'0 0.4
2017-Oct-19 11:30N 32°37' W 091°09'2 4.5
2017-Oct-19 11:00N 32°35' W 091°08'2 4.5
2017-Oct-19 10:30N 32°33' W 091°06'2 4.3
2017-Oct-19 10:00N 32°31' W 091°06'3 5.4
2017-Oct-19 09:30N 32°29' W 091°07'2 5.0
2017-Oct-19 09:00N 32°27' W 091°05'2 4.9
2017-Oct-19 08:30N 32°26' W 091°02'2 4.5
2017-Oct-19 08:00N 32°25' W 090°60'2 3.1
2017-Oct-19 07:30N 32°23' W 090°60'2 3.0
2017-Oct-19 07:00N 32°22' W 091°00'2 4.3
2017-Oct-19 06:30N 32°21' W 090°58'0 0.3
2017-Oct-19 06:00N 32°21' W 090°58'0 0.1
2017-Oct-19 05:30N 32°21' W 090°58'2 3.3
2017-Oct-19 05:00N 32°21' W 090°56'2 4.2
2017-Oct-19 04:30N 32°20' W 090°54'2 4.2
2017-Oct-19 04:00N 32°18' W 090°55'0 0.2
2017-Oct-19 03:30N 32°18' W 090°55'0 0.6
2017-Oct-19 03:00N 32°18' W 090°55'0 0.0
2017-Oct-19 02:30N 32°18' W 090°55'2 3.9
2017-Oct-19 02:00N 32°17' W 090°57'2 4.3
2017-Oct-19 01:30N 32°15' W 090°59'2 3.9
2017-Oct-19 01:00N 32°13' W 090°59'2 4.5
2017-Oct-19 00:30N 32°11' W 090°60'2 4.3
2017-Oct-19 00:00N 32°09' W 091°00'2 4.1
2017-Oct-18 23:29N 32°07' W 091°01'2 4.2
2017-Oct-18 23:00N 32°08' W 091°04'2 4.4
2017-Oct-18 22:30N 32°08' W 091°06'29 3.7
2017-Oct-18 14:36N 31°42' W 091°24'  
2017-Oct-15 15:49N 31°53' W 091°13'3 8.4
2017-Oct-15 15:25N 31°56' W 091°12'6 7.6
2017-Oct-15 14:37N 31°60' W 091°06'7 7.0
2017-Oct-15 13:38N 32°06' W 091°06'1 7.7
2017-Oct-15 13:30N 32°07' W 091°07'2 3.2
2017-Oct-15 12:58N 32°08' W 091°05'3 7.2
2017-Oct-15 12:30N 32°08' W 091°01'5 9.0
2017-Oct-15 12:00N 32°12' W 090°59'4 8.8
2017-Oct-15 11:30N 32°16' W 090°58'4 8.5
2017-Oct-15 11:00N 32°19' W 090°54'1 2.7
2017-Oct-15 10:30N 32°20' W 090°54'4 7.8
2017-Oct-15 10:00N 32°21' W 090°59'3 6.6
2017-Oct-15 09:30N 32°24' W 090°59'4 8.1
2017-Oct-15 09:00N 32°26' W 091°04'4 8.1
2017-Oct-15 08:30N 32°29' W 091°07'4 8.7
2017-Oct-15 08:00N 32°34' W 091°06'4 8.4
2017-Oct-15 07:30N 32°37' W 091°09'4 7.6
2017-Oct-15 06:55N 32°40' W 091°06'4 4.5
2017-Oct-15 06:03N 32°44' W 091°04'0 4.7
2017-Oct-15 06:00N 32°44' W 091°04'5 7.2
2017-Oct-15 05:21N 32°45' W 091°09'  
Track history (hours):
 
Tides and Currents Weather Stations Pressure Air Temp Water Temp Dewpoint Dewpoint Depression Visibility Wind Speed Wind Dir Waves Ship Positions

Justin Paul Eckstein

Owner: Marquette Transportation Co. LLC, Paducah, KY. More information available from US FCC via Universal Licensing System and Coast Guard Vessel Documentation Center.

Last reported at 2017-Oct-19 13:52 UTC. Time now 2017-Oct-19 22:13 UTC.
Position N 32°40' W 091°07'.

Length 61 m; draft 3.2 m.

Type: Tow > 200 m length. MMSI: 367608030.

Date/timePositionNaut miles runAvg speedWind from/ knotsBaromVisibWave heightAir tempDewpointWater temp
2017-Oct-19 13:52N 32°40' W 091°07'1 3.6
2017-Oct-19 13:30N 32°40' W 091°08'2 3.6
2017-Oct-19 12:57N 32°38' W 091°09'0 1.0
2017-Oct-19 12:30N 32°37' W 091°09'0 0.1
2017-Oct-19 12:00N 32°37' W 091°09'0 0.4
2017-Oct-19 11:30N 32°37' W 091°09'2 4.5
2017-Oct-19 11:00N 32°35' W 091°08'2 4.5
2017-Oct-19 10:30N 32°33' W 091°06'2 4.3
2017-Oct-19 10:00N 32°31' W 091°06'3 5.4
2017-Oct-19 09:30N 32°29' W 091°07'2 5.0
2017-Oct-19 09:00N 32°27' W 091°05'2 4.9
2017-Oct-19 08:30N 32°26' W 091°02'2 4.5
2017-Oct-19 08:00N 32°25' W 090°60'2 3.1
2017-Oct-19 07:30N 32°23' W 090°60'2 3.0
2017-Oct-19 07:00N 32°22' W 091°00'2 4.3
2017-Oct-19 06:30N 32°21' W 090°58'0 0.3
2017-Oct-19 06:00N 32°21' W 090°58'0 0.1
2017-Oct-19 05:30N 32°21' W 090°58'2 3.3
2017-Oct-19 05:00N 32°21' W 090°56'2 4.2
2017-Oct-19 04:30N 32°20' W 090°54'2 4.2
2017-Oct-19 04:00N 32°18' W 090°55'0 0.2
2017-Oct-19 03:30N 32°18' W 090°55'0 0.6
2017-Oct-19 03:00N 32°18' W 090°55'0 0.0
2017-Oct-19 02:30N 32°18' W 090°55'2 3.9
2017-Oct-19 02:00N 32°17' W 090°57'2 4.3
2017-Oct-19 01:30N 32°15' W 090°59'2 3.9
2017-Oct-19 01:00N 32°13' W 090°59'2 4.5
2017-Oct-19 00:30N 32°11' W 090°60'2 4.3
2017-Oct-19 00:00N 32°09' W 091°00'2 4.1
2017-Oct-18 23:29N 32°07' W 091°01'2 4.2
2017-Oct-18 23:00N 32°08' W 091°04'2 4.4
2017-Oct-18 22:30N 32°08' W 091°06'29 3.7
2017-Oct-18 14:36N 31°42' W 091°24'  
2017-Oct-15 15:49N 31°53' W 091°13'3 8.4
2017-Oct-15 15:25N 31°56' W 091°12'6 7.6
2017-Oct-15 14:37N 31°60' W 091°06'7 7.0
2017-Oct-15 13:38N 32°06' W 091°06'1 7.7
2017-Oct-15 13:30N 32°07' W 091°07'2 3.2
2017-Oct-15 12:58N 32°08' W 091°05'3 7.2
2017-Oct-15 12:30N 32°08' W 091°01'5 9.0
2017-Oct-15 12:00N 32°12' W 090°59'4 8.8
2017-Oct-15 11:30N 32°16' W 090°58'4 8.5
2017-Oct-15 11:00N 32°19' W 090°54'1 2.7
2017-Oct-15 10:30N 32°20' W 090°54'4 7.8
2017-Oct-15 10:00N 32°21' W 090°59'3 6.6
2017-Oct-15 09:30N 32°24' W 090°59'4 8.1
2017-Oct-15 09:00N 32°26' W 091°04'4 8.1
2017-Oct-15 08:30N 32°29' W 091°07'4 8.7
2017-Oct-15 08:00N 32°34' W 091°06'4 8.4
2017-Oct-15 07:30N 32°37' W 091°09'4 7.6
2017-Oct-15 06:55N 32°40' W 091°06'4 4.5
2017-Oct-15 06:03N 32°44' W 091°04'0 4.7
2017-Oct-15 06:00N 32°44' W 091°04'5 7.2
2017-Oct-15 05:21N 32°45' W 091°09'  

Dump ship's entire track history